sensor_id;sensor_type;location;lat;lon;timestamp;temperature;humidity
30250;DHT22;17064;47.974;13.826;2023-04-03T03:02:49;2.60;99.90
30250;DHT22;17064;47.974;13.826;2023-04-03T03:07:50;2.60;99.90
30250;DHT22;17064;47.974;13.826;2023-04-03T03:12:50;2.50;99.90
30250;DHT22;17064;47.974;13.826;2023-04-03T03:17:51;2.60;99.90
30250;DHT22;17064;47.974;13.826;2023-04-03T03:22:52;2.50;99.90
30250;DHT22;17064;47.974;13.826;2023-04-03T03:27:53;2.50;99.90
30250;DHT22;17064;47.974;13.826;2023-04-03T03:32:53;2.50;99.90
30250;DHT22;17064;47.974;13.826;2023-04-03T03:37:54;2.50;99.90
30250;DHT22;17064;47.974;13.826;2023-04-03T03:42:55;2.50;99.90
30250;DHT22;17064;47.974;13.826;2023-04-03T03:47:56;2.50;99.90
30250;DHT22;17064;47.974;13.826;2023-04-03T03:52:56;2.40;99.90
30250;DHT22;17064;47.974;13.826;2023-04-03T03:57:57;2.40;99.90
30250;DHT22;17064;47.974;13.826;2023-04-03T04:02:58;2.40;99.90
30250;DHT22;17064;47.974;13.826;2023-04-03T04:07:59;2.40;99.90
30250;DHT22;17064;47.974;13.826;2023-04-03T04:13:00;2.40;99.90
30250;DHT22;17064;47.974;13.826;2023-04-03T04:18:01;2.40;99.90
30250;DHT22;17064;47.974;13.826;2023-04-03T04:23:01;2.30;99.90
30250;DHT22;17064;47.974;13.826;2023-04-03T04:28:02;2.30;99.90
30250;DHT22;17064;47.974;13.826;2023-04-03T04:33:03;2.30;99.90
30250;DHT22;17064;47.974;13.826;2023-04-03T04:38:04;2.30;99.90
30250;DHT22;17064;47.974;13.826;2023-04-03T04:43:05;2.30;99.90
30250;DHT22;17064;47.974;13.826;2023-04-03T04:48:05;2.30;99.90
30250;DHT22;17064;47.974;13.826;2023-04-03T04:53:06;2.20;99.90
30250;DHT22;17064;47.974;13.826;2023-04-03T04:58:07;2.20;99.90
30250;DHT22;17064;47.974;13.826;2023-04-03T05:03:07;2.20;99.90
30250;DHT22;17064;47.974;13.826;2023-04-03T05:08:08;2.20;99.90
30250;DHT22;17064;47.974;13.826;2023-04-03T05:13:09;2.20;99.90
30250;DHT22;17064;47.974;13.826;2023-04-03T05:18:10;2.20;99.90
30250;DHT22;17064;47.974;13.826;2023-04-03T05:23:11;2.20;99.90
30250;DHT22;17064;47.974;13.826;2023-04-03T05:28:11;2.30;99.90
30250;DHT22;17064;47.974;13.826;2023-04-03T05:33:12;2.30;99.90
30250;DHT22;17064;47.974;13.826;2023-04-03T05:38:16;2.30;99.90
30250;DHT22;17064;47.974;13.826;2023-04-03T05:43:16;2.40;99.90
30250;DHT22;17064;47.974;13.826;2023-04-03T05:48:17;2.40;99.90
30250;DHT22;17064;47.974;13.826;2023-04-03T05:53:26;2.40;99.90
30250;DHT22;17064;47.974;13.826;2023-04-03T05:58:27;2.40;99.90
30250;DHT22;17064;47.974;13.826;2023-04-03T06:03:28;2.50;99.90
30250;DHT22;17064;47.974;13.826;2023-04-03T06:08:28;2.50;99.90
30250;DHT22;17064;47.974;13.826;2023-04-03T06:13:29;2.50;99.90
30250;DHT22;17064;47.974;13.826;2023-04-03T06:18:30;2.50;99.90
30250;DHT22;17064;47.974;13.826;2023-04-03T06:23:31;2.60;99.90
30250;DHT22;17064;47.974;13.826;2023-04-03T06:28:33;2.60;99.90
30250;DHT22;17064;47.974;13.826;2023-04-03T06:33:33;2.70;99.90
30250;DHT22;17064;47.974;13.826;2023-04-03T06:38:34;2.80;99.90
30250;DHT22;17064;47.974;13.826;2023-04-03T06:43:35;2.90;99.90
30250;DHT22;17064;47.974;13.826;2023-04-03T06:48:36;3.00;99.90
30250;DHT22;17064;47.974;13.826;2023-04-03T06:53:37;3.10;99.90
30250;DHT22;17064;47.974;13.826;2023-04-03T06:58:38;3.20;99.90
30250;DHT22;17064;47.974;13.826;2023-04-03T07:03:39;3.20;99.90
30250;DHT22;17064;47.974;13.826;2023-04-03T07:08:40;3.30;99.90
30250;DHT22;17064;47.974;13.826;2023-04-03T07:13:42;3.40;99.90
30250;DHT22;17064;47.974;13.826;2023-04-03T07:18:43;3.50;99.90
30250;DHT22;17064;47.974;13.826;2023-04-03T07:23:44;3.70;99.90
30250;DHT22;17064;47.974;13.826;2023-04-03T07:28:45;3.80;99.90
30250;DHT22;17064;47.974;13.826;2023-04-03T07:33:47;4.00;99.90
30250;DHT22;17064;47.974;13.826;2023-04-03T07:38:49;4.10;99.90
30250;DHT22;17064;47.974;13.826;2023-04-03T07:43:50;4.30;99.90
30250;DHT22;17064;47.974;13.826;2023-04-03T07:48:52;4.50;99.90
30250;DHT22;17064;47.974;13.826;2023-04-03T07:53:52;4.70;99.90
30250;DHT22;17064;47.974;13.826;2023-04-03T07:58:53;4.80;99.90
30250;DHT22;17064;47.974;13.826;2023-04-03T08:03:54;4.80;99.90
30250;DHT22;17064;47.974;13.826;2023-04-03T08:08:55;4.90;99.90
30250;DHT22;17064;47.974;13.826;2023-04-03T08:13:56;4.90;99.90
30250;DHT22;17064;47.974;13.826;2023-04-03T08:18:57;5.10;99.90
30250;DHT22;17064;47.974;13.826;2023-04-03T08:23:57;5.10;99.90
30250;DHT22;17064;47.974;13.826;2023-04-03T08:28:58;5.10;99.90
30250;DHT22;17064;47.974;13.826;2023-04-03T08:33:59;5.20;99.90
30250;DHT22;17064;47.974;13.826;2023-04-03T08:39:00;5.10;99.90
30250;DHT22;17064;47.974;13.826;2023-04-03T08:54:33;5.10;99.90
30250;DHT22;17064;47.974;13.826;2023-04-03T08:59:37;5.20;99.90
30250;DHT22;17064;47.974;13.826;2023-04-03T09:04:38;5.20;99.90
30250;DHT22;17064;47.974;13.826;2023-04-03T09:09:41;5.10;99.90
30250;DHT22;17064;47.974;13.826;2023-04-03T09:19:58;4.50;99.90
30250;DHT22;17064;47.974;13.826;2023-04-03T09:25:31;4.20;99.90
30250;DHT22;17064;47.974;13.826;2023-04-03T09:30:33;4.00;99.90
30250;DHT22;17064;47.974;13.826;2023-04-03T09:35:37;3.70;99.90
30250;DHT22;17064;47.974;13.826;2023-04-03T09:40:40;3.50;99.90
30250;DHT22;17064;47.974;13.826;2023-04-03T09:45:41;3.30;99.90
30250;DHT22;17064;47.974;13.826;2023-04-03T09:56:00;3.20;99.90
30250;DHT22;17064;47.974;13.826;2023-04-03T10:01:03;3.20;99.90
30250;DHT22;17064;47.974;13.826;2023-04-03T10:06:22;3.30;99.90
30250;DHT22;17064;47.974;13.826;2023-04-03T10:11:24;3.40;99.90
30250;DHT22;17064;47.974;13.826;2023-04-03T10:16:35;3.50;99.90
30250;DHT22;17064;47.974;13.826;2023-04-03T10:26:59;3.70;99.90
30250;DHT22;17064;47.974;13.826;2023-04-03T10:37:29;4.00;99.90
30250;DHT22;17064;47.974;13.826;2023-04-03T10:42:59;4.00;99.90
30250;DHT22;17064;47.974;13.826;2023-04-03T10:48:29;4.10;99.90
30250;DHT22;17064;47.974;13.826;2023-04-03T10:59:35;3.80;99.90
30250;DHT22;17064;47.974;13.826;2023-04-03T11:04:39;3.80;99.90
30250;DHT22;17064;47.974;13.826;2023-04-03T11:09:44;3.90;99.90
30250;DHT22;17064;47.974;13.826;2023-04-03T11:14:47;4.20;99.90
30250;DHT22;17064;47.974;13.826;2023-04-03T11:35:25;5.40;99.90
30250;DHT22;17064;47.974;13.826;2023-04-03T11:40:29;5.70;99.90
30250;DHT22;17064;47.974;13.826;2023-04-03T11:50:42;5.70;99.90
30250;DHT22;17064;47.974;13.826;2023-04-03T12:05:57;5.60;99.90
30250;DHT22;17064;47.974;13.826;2023-04-03T12:11:30;5.60;99.90
30250;DHT22;17064;47.974;13.826;2023-04-03T12:32:09;6.00;99.90
30250;DHT22;17064;47.974;13.826;2023-04-03T12:37:29;6.20;99.90
30250;DHT22;17064;47.974;13.826;2023-04-03T12:42:57;6.50;99.90
30250;DHT22;17064;47.974;13.826;2023-04-03T12:48:06;6.70;99.90
30250;DHT22;17064;47.974;13.826;2023-04-03T12:53:16;7.40;99.90
30250;DHT22;17064;47.974;13.826;2023-04-03T12:58:26;7.80;98.40
30250;DHT22;17064;47.974;13.826;2023-04-03T13:03:27;8.10;97.80
30250;DHT22;17064;47.974;13.826;2023-04-03T13:08:29;7.90;91.40
30250;DHT22;17064;47.974;13.826;2023-04-03T13:13:31;7.30;92.40
30250;DHT22;17064;47.974;13.826;2023-04-03T13:18:34;7.00;92.90
30250;DHT22;17064;47.974;13.826;2023-04-03T13:23:36;6.50;92.80
30250;DHT22;17064;47.974;13.826;2023-04-03T13:28:39;6.00;97.20
30250;DHT22;17064;47.974;13.826;2023-04-03T13:33:55;5.40;99.10
30250;DHT22;17064;47.974;13.826;2023-04-03T13:49:36;3.80;99.90
30250;DHT22;17064;47.974;13.826;2023-04-03T13:54:38;3.50;99.90
30250;DHT22;17064;47.974;13.826;2023-04-03T13:59:39;3.40;99.90
30250;DHT22;17064;47.974;13.826;2023-04-03T14:09:41;3.40;99.90
30250;DHT22;17064;47.974;13.826;2023-04-03T14:14:42;3.30;99.90
30250;DHT22;17064;47.974;13.826;2023-04-03T14:19:44;3.30;99.90
30250;DHT22;17064;47.974;13.826;2023-04-03T14:24:45;3.40;99.90
30250;DHT22;17064;47.974;13.826;2023-04-03T14:29:48;3.50;99.90
30250;DHT22;17064;47.974;13.826;2023-04-03T14:34:51;3.70;99.90
30250;DHT22;17064;47.974;13.826;2023-04-03T14:39:53;3.90;99.90
30250;DHT22;17064;47.974;13.826;2023-04-03T14:44:54;4.10;99.90
30250;DHT22;17064;47.974;13.826;2023-04-03T14:49:55;4.20;99.90
30250;DHT22;17064;47.974;13.826;2023-04-03T14:54:56;3.90;99.90
30250;DHT22;17064;47.974;13.826;2023-04-03T14:59:58;3.80;99.90
30250;DHT22;17064;47.974;13.826;2023-04-03T15:05:00;3.60;99.90
30250;DHT22;17064;47.974;13.826;2023-04-03T15:10:23;3.30;99.90
30250;DHT22;17064;47.974;13.826;2023-04-03T15:15:24;3.10;99.90
30250;DHT22;17064;47.974;13.826;2023-04-03T15:20:29;3.00;99.90
30250;DHT22;17064;47.974;13.826;2023-04-03T15:25:34;3.00;99.90
30250;DHT22;17064;47.974;13.826;2023-04-03T15:30:36;3.00;99.90
30250;DHT22;17064;47.974;13.826;2023-04-03T15:35:39;3.00;99.90
30250;DHT22;17064;47.974;13.826;2023-04-03T15:40:40;3.20;99.90
30250;DHT22;17064;47.974;13.826;2023-04-03T15:45:41;3.20;99.90
30250;DHT22;17064;47.974;13.826;2023-04-03T15:50:43;3.10;99.90
30250;DHT22;17064;47.974;13.826;2023-04-03T15:55:43;3.10;99.90
30250;DHT22;17064;47.974;13.826;2023-04-03T16:00:44;3.10;99.90
30250;DHT22;17064;47.974;13.826;2023-04-03T16:05:45;3.00;99.90
30250;DHT22;17064;47.974;13.826;2023-04-03T16:10:46;3.00;99.90
30250;DHT22;17064;47.974;13.826;2023-04-03T16:15:47;3.00;99.90
30250;DHT22;17064;47.974;13.826;2023-04-03T16:20:49;3.00;99.90
30250;DHT22;17064;47.974;13.826;2023-04-03T16:25:50;3.00;99.90
30250;DHT22;17064;47.974;13.826;2023-04-03T16:30:50;3.10;99.90
30250;DHT22;17064;47.974;13.826;2023-04-03T16:35:51;3.20;99.90
30250;DHT22;17064;47.974;13.826;2023-04-03T16:40:52;3.20;99.90
30250;DHT22;17064;47.974;13.826;2023-04-03T16:45:57;3.20;99.90
30250;DHT22;17064;47.974;13.826;2023-04-03T16:50:58;3.10;99.90
30250;DHT22;17064;47.974;13.826;2023-04-03T16:55:59;3.10;99.90
30250;DHT22;17064;47.974;13.826;2023-04-03T17:01:09;3.00;99.90
30250;DHT22;17064;47.974;13.826;2023-04-03T17:06:12;3.00;99.90
30250;DHT22;17064;47.974;13.826;2023-04-03T17:11:17;3.00;99.90
30250;DHT22;17064;47.974;13.826;2023-04-03T17:16:18;3.00;99.90
30250;DHT22;17064;47.974;13.826;2023-04-03T17:21:19;3.00;99.90
30250;DHT22;17064;47.974;13.826;2023-04-03T17:26:20;3.00;99.90
30250;DHT22;17064;47.974;13.826;2023-04-03T17:31:21;2.90;99.90
30250;DHT22;17064;47.974;13.826;2023-04-03T17:36:22;2.90;99.90
30250;DHT22;17064;47.974;13.826;2023-04-03T17:41:24;2.80;99.90
30250;DHT22;17064;47.974;13.826;2023-04-03T17:46:25;2.70;99.90
30250;DHT22;17064;47.974;13.826;2023-04-03T17:51:26;2.50;99.90
30250;DHT22;17064;47.974;13.826;2023-04-03T17:56:28;2.50;99.90
30250;DHT22;17064;47.974;13.826;2023-04-03T18:01:33;2.40;99.90
30250;DHT22;17064;47.974;13.826;2023-04-03T18:11:39;2.20;99.90
30250;DHT22;17064;47.974;13.826;2023-04-03T18:16:40;2.10;99.90
30250;DHT22;17064;47.974;13.826;2023-04-03T18:21:42;2.00;99.90
30250;DHT22;17064;47.974;13.826;2023-04-03T18:26:47;2.00;99.90
30250;DHT22;17064;47.974;13.826;2023-04-03T18:31:52;1.90;99.90
30250;DHT22;17064;47.974;13.826;2023-04-03T18:36:54;1.90;99.90
30250;DHT22;17064;47.974;13.826;2023-04-03T18:41:56;1.80;99.90
30250;DHT22;17064;47.974;13.826;2023-04-03T18:46:58;1.80;99.90
30250;DHT22;17064;47.974;13.826;2023-04-03T18:51:59;1.70;99.90
30250;DHT22;17064;47.974;13.826;2023-04-03T18:57:02;1.80;99.90
30250;DHT22;17064;47.974;13.826;2023-04-03T19:02:04;1.70;99.90
30250;DHT22;17064;47.974;13.826;2023-04-03T19:07:07;1.70;99.90
30250;DHT22;17064;47.974;13.826;2023-04-03T19:12:08;1.70;99.90
30250;DHT22;17064;47.974;13.826;2023-04-03T19:17:09;1.70;99.90
30250;DHT22;17064;47.974;13.826;2023-04-03T19:22:10;1.60;99.90
30250;DHT22;17064;47.974;13.826;2023-04-03T19:27:11;1.70;99.90
30250;DHT22;17064;47.974;13.826;2023-04-03T19:32:14;1.70;99.90
30250;DHT22;17064;47.974;13.826;2023-04-03T19:37:15;1.70;99.90
30250;DHT22;17064;47.974;13.826;2023-04-03T19:42:18;1.70;99.90
30250;DHT22;17064;47.974;13.826;2023-04-03T19:47:19;1.60;99.90
30250;DHT22;17064;47.974;13.826;2023-04-03T19:52:21;1.60;99.90
30250;DHT22;17064;47.974;13.826;2023-04-03T19:57:24;1.50;99.90
30250;DHT22;17064;47.974;13.826;2023-04-03T20:02:26;1.50;99.90
30250;DHT22;17064;47.974;13.826;2023-04-03T20:07:27;1.40;99.90
30250;DHT22;17064;47.974;13.826;2023-04-03T20:12:29;1.40;99.90
30250;DHT22;17064;47.974;13.826;2023-04-03T20:17:30;1.30;99.90
30250;DHT22;17064;47.974;13.826;2023-04-03T20:22:33;1.40;99.90
30250;DHT22;17064;47.974;13.826;2023-04-03T20:27:35;1.30;99.90
30250;DHT22;17064;47.974;13.826;2023-04-03T20:32:36;1.30;99.90
30250;DHT22;17064;47.974;13.826;2023-04-03T20:37:37;1.20;99.90
30250;DHT22;17064;47.974;13.826;2023-04-03T20:42:42;1.20;99.90
30250;DHT22;17064;47.974;13.826;2023-04-03T20:47:43;1.10;99.90
30250;DHT22;17064;47.974;13.826;2023-04-03T20:52:44;1.10;99.90
30250;DHT22;17064;47.974;13.826;2023-04-03T20:57:47;1.10;99.90
30250;DHT22;17064;47.974;13.826;2023-04-03T21:02:47;1.10;99.90
30250;DHT22;17064;47.974;13.826;2023-04-03T21:19:23;1.10;99.90
30250;DHT22;17064;47.974;13.826;2023-04-03T21:24:25;1.10;99.90
30250;DHT22;17064;47.974;13.826;2023-04-03T21:29:25;1.10;99.90
30250;DHT22;17064;47.974;13.826;2023-04-03T21:34:30;1.20;99.90
30250;DHT22;17064;47.974;13.826;2023-04-03T21:39:31;1.10;99.90
30250;DHT22;17064;47.974;13.826;2023-04-03T21:44:32;1.00;99.90
30250;DHT22;17064;47.974;13.826;2023-04-03T21:49:33;0.90;99.90
30250;DHT22;17064;47.974;13.826;2023-04-03T21:54:33;0.90;99.90
30250;DHT22;17064;47.974;13.826;2023-04-03T21:59:34;0.90;99.90
30250;DHT22;17064;47.974;13.826;2023-04-03T22:04:36;0.90;99.90
30250;DHT22;17064;47.974;13.826;2023-04-03T22:09:37;0.90;99.90
30250;DHT22;17064;47.974;13.826;2023-04-03T22:14:37;0.80;99.90
30250;DHT22;17064;47.974;13.826;2023-04-03T22:19:38;0.80;99.90
30250;DHT22;17064;47.974;13.826;2023-04-03T22:24:39;0.70;99.90
30250;DHT22;17064;47.974;13.826;2023-04-03T22:29:40;0.70;99.90
30250;DHT22;17064;47.974;13.826;2023-04-03T22:34:41;0.60;99.90
30250;DHT22;17064;47.974;13.826;2023-04-03T22:39:42;0.60;99.90
30250;DHT22;17064;47.974;13.826;2023-04-03T22:44:43;0.50;99.90
30250;DHT22;17064;47.974;13.826;2023-04-03T22:49:43;0.50;99.90
30250;DHT22;17064;47.974;13.826;2023-04-03T22:54:44;0.40;99.90
30250;DHT22;17064;47.974;13.826;2023-04-03T22:59:45;0.40;99.90
